createdAt,value
2022-08-29T00:02:21.851Z,3.80
2022-08-29T00:05:08.594Z,4.10
2022-08-29T00:07:54.395Z,3.80
2022-08-29T00:10:40.993Z,3.22
2022-08-29T00:13:27.877Z,3.38
2022-08-29T00:16:13.521Z,2.92
2022-08-29T00:18:58.979Z,3.00
2022-08-29T00:21:44.797Z,2.97
2022-08-29T00:24:30.061Z,3.28
2022-08-29T00:27:15.595Z,3.10
2022-08-29T00:30:01.717Z,3.28
2022-08-29T00:32:47.560Z,3.90
2022-08-29T00:35:35.954Z,3.53
2022-08-29T00:38:22.104Z,3.80
2022-08-29T00:41:13.374Z,3.58
2022-08-29T00:43:58.845Z,2.92
2022-08-29T00:46:49.988Z,2.88
2022-08-29T00:49:44.561Z,3.20
2022-08-29T00:52:42.112Z,3.55
2022-08-29T00:55:31.470Z,3.47
2022-08-29T00:58:34.231Z,3.92
2022-08-29T01:04:06.847Z,3.63
2022-08-29T01:06:55.671Z,3.47
2022-08-29T01:09:43.784Z,3.88
2022-08-29T01:12:29.374Z,4.03
2022-08-29T01:15:15.090Z,3.58
2022-08-29T01:18:03.417Z,4.45
2022-08-29T01:21:22.582Z,3.95
2022-08-29T01:24:46.064Z,4.82
2022-08-29T01:27:35.224Z,4.68
2022-08-29T01:30:20.866Z,3.50
2022-08-29T01:33:06.852Z,3.83
2022-08-29T01:35:53.987Z,3.25
2022-08-29T01:38:40.202Z,3.60
2022-08-29T01:41:26.730Z,3.10
2022-08-29T01:44:19.232Z,3.15
2022-08-29T01:49:50.961Z,3.00
2022-08-29T01:52:36.174Z,3.35
2022-08-29T01:55:21.673Z,3.13
2022-08-29T01:58:07.681Z,3.47
2022-08-29T02:00:54.027Z,2.88
2022-08-29T02:03:39.320Z,2.60
2022-08-29T02:06:26.045Z,2.90
2022-08-29T02:09:12.320Z,3.17
2022-08-29T02:12:00.373Z,2.70
2022-08-29T02:14:45.607Z,3.38
2022-08-29T02:17:31.124Z,3.15
2022-08-29T02:20:16.881Z,3.38
2022-08-29T02:23:02.644Z,3.60
2022-08-29T02:25:49.996Z,2.92
2022-08-29T02:28:36.847Z,3.50
2022-08-29T02:31:23.367Z,3.35
2022-08-29T02:34:11.592Z,3.33
2022-08-29T02:36:59.678Z,3.40
2022-08-29T02:39:45.442Z,3.58
2022-08-29T02:42:30.903Z,3.33
2022-08-29T02:45:16.375Z,3.25
2022-08-29T02:48:01.801Z,3.78
2022-08-29T02:50:54.108Z,3.70
2022-08-29T02:53:39.602Z,4.20
2022-08-29T02:56:26.090Z,3.80
2022-08-29T02:59:12.180Z,3.25
2022-08-29T03:01:57.871Z,4.22
2022-08-29T03:04:43.493Z,4.18
2022-08-29T03:07:29.692Z,3.75
2022-08-29T03:10:16.064Z,3.40
2022-08-29T03:13:01.800Z,3.97
2022-08-29T03:15:47.899Z,3.60
2022-08-29T03:18:33.250Z,3.55
2022-08-29T03:21:21.958Z,3.78
2022-08-29T03:24:07.629Z,2.72
2022-08-29T03:26:56.676Z,3.45
2022-08-29T03:29:42.677Z,3.75
2022-08-29T03:32:28.278Z,3.42
2022-08-29T03:35:15.519Z,3.85
2022-08-29T03:38:01.455Z,4.43
2022-08-29T03:40:47.121Z,4.60
2022-08-29T03:43:33.368Z,3.90
2022-08-29T03:46:19.115Z,4.45
2022-08-29T03:49:07.401Z,4.03
2022-08-29T03:51:53.855Z,3.65
2022-08-29T03:54:39.715Z,3.70
2022-08-29T03:57:25.108Z,4.30
2022-08-29T04:00:16.315Z,4.43
2022-08-29T04:03:02.074Z,4.33
2022-08-29T04:05:47.549Z,5.03
2022-08-29T04:08:36.543Z,5.70
2022-08-29T04:11:24.294Z,4.32
2022-08-29T04:14:09.846Z,4.47
2022-08-29T04:16:55.472Z,5.47
2022-08-29T04:19:41.103Z,5.40
2022-08-29T04:22:26.947Z,4.47
2022-08-29T04:25:14.589Z,4.70
2022-08-29T04:28:00.209Z,4.63
2022-08-29T04:30:50.854Z,5.53
2022-08-29T04:33:37.528Z,6.10
2022-08-29T04:36:23.273Z,5.75
2022-08-29T04:39:09.979Z,5.50
2022-08-29T04:41:55.310Z,5.07
2022-08-29T04:44:40.951Z,4.80
2022-08-29T04:47:26.435Z,5.40
2022-08-29T04:50:16.246Z,5.88
2022-08-29T04:53:02.059Z,5.40
2022-08-29T04:56:06.607Z,5.13
2022-08-29T04:58:52.253Z,5.45
2022-08-29T05:01:37.771Z,6.13
2022-08-29T05:04:23.064Z,5.63
2022-08-29T05:07:08.757Z,5.90
2022-08-29T05:10:02.323Z,5.85
2022-08-29T05:12:48.502Z,6.68
2022-08-29T05:15:34.162Z,5.95
2022-08-29T05:18:20.559Z,6.28
2022-08-29T05:21:06.703Z,6.72
2022-08-29T05:23:52.103Z,7.25
2022-08-29T05:26:42.736Z,7.45
2022-08-29T05:29:29.331Z,7.05
2022-08-29T05:32:15.889Z,6.72
2022-08-29T05:35:01.197Z,8.02
2022-08-29T05:37:46.687Z,9.23
2022-08-29T05:40:32.517Z,9.35
2022-08-29T05:43:18.464Z,9.20
2022-08-29T05:46:07.499Z,9.60
2022-08-29T05:48:53.299Z,9.80
2022-08-29T05:51:39.878Z,10.60
2022-08-29T05:54:29.968Z,11.95
2022-08-29T05:57:20.343Z,10.48
2022-08-29T06:00:09.006Z,11.25
2022-08-29T06:02:57.660Z,11.80
2022-08-29T06:05:43.291Z,11.27
2022-08-29T06:08:28.788Z,12.30
2022-08-29T06:11:23.216Z,12.38
2022-08-29T06:14:08.852Z,12.13
2022-08-29T06:16:55.230Z,12.18
2022-08-29T06:19:40.735Z,12.38
2022-08-29T06:22:26.437Z,12.40
2022-08-29T06:25:35.563Z,12.60
2022-08-29T06:28:23.860Z,11.98
2022-08-29T06:31:12.676Z,11.70
2022-08-29T06:34:00.831Z,10.65
2022-08-29T06:36:46.458Z,10.93
2022-08-29T06:39:31.949Z,9.93
2022-08-29T06:42:23.221Z,10.35
2022-08-29T06:45:09.652Z,9.73
2022-08-29T06:47:55.370Z,9.70
2022-08-29T06:50:45.461Z,9.32
2022-08-29T06:53:32.492Z,9.50
2022-08-29T06:56:19.386Z,9.95
2022-08-29T06:59:07.366Z,9.15
2022-08-29T07:01:53.031Z,9.50
2022-08-29T07:04:38.677Z,9.27
2022-08-29T07:07:24.002Z,9.90
2022-08-29T07:10:12.518Z,9.05
2022-08-29T07:12:57.944Z,8.73
2022-08-29T07:15:43.311Z,8.90
2022-08-29T07:18:29.340Z,8.18
2022-08-29T07:21:20.738Z,8.90
2022-08-29T07:24:08.014Z,8.48
2022-08-29T07:26:53.293Z,8.38
2022-08-29T07:29:39.286Z,8.18
2022-08-29T07:32:26.036Z,8.07
2022-08-29T07:35:18.157Z,8.88
2022-08-29T07:38:04.035Z,7.45
2022-08-29T07:41:01.660Z,8.77
2022-08-29T07:43:47.193Z,8.02
2022-08-29T07:46:33.067Z,9.45
2022-08-29T07:49:18.539Z,7.80
2022-08-29T07:52:05.004Z,8.63
2022-08-29T07:54:50.399Z,8.90
2022-08-29T07:57:37.018Z,7.60
2022-08-29T08:00:25.365Z,8.52
2022-08-29T08:03:11.305Z,7.82
2022-08-29T08:05:57.318Z,7.85
2022-08-29T08:08:43.217Z,7.93
2022-08-29T08:11:28.606Z,8.30
2022-08-29T08:14:14.235Z,7.55
2022-08-29T08:17:00.346Z,7.53
2022-08-29T08:19:45.953Z,7.22
2022-08-29T08:22:31.698Z,7.18
2022-08-29T08:25:17.794Z,7.03
2022-08-29T08:28:13.934Z,7.78
2022-08-29T08:31:05.758Z,8.23
2022-08-29T08:33:52.138Z,8.15
2022-08-29T08:36:41.317Z,7.55
2022-08-29T08:39:27.303Z,7.57
2022-08-29T08:42:28.880Z,8.80
2022-08-29T08:45:20.423Z,6.78
2022-08-29T08:48:14.178Z,7.25
2022-08-29T08:51:32.575Z,6.78
2022-08-29T08:54:24.300Z,6.10
2022-08-29T08:57:12.532Z,6.00
2022-08-29T08:59:59.102Z,6.22
2022-08-29T09:03:14.233Z,5.75
2022-08-29T09:06:18.521Z,6.10
2022-08-29T09:09:14.469Z,6.20
2022-08-29T09:12:21.327Z,6.50
2022-08-29T09:15:20.809Z,5.68
2022-08-29T09:18:13.693Z,6.05
2022-08-29T09:20:59.922Z,5.90
2022-08-29T09:23:49.555Z,5.10
2022-08-29T09:26:35.530Z,6.38
2022-08-29T09:29:30.071Z,5.60
2022-08-29T09:32:20.306Z,5.50
2022-08-29T09:35:24.570Z,5.72
2022-08-29T09:38:18.505Z,5.47
2022-08-29T09:41:10.771Z,7.03
2022-08-29T09:46:43.093Z,6.18
2022-08-29T09:49:28.567Z,6.15
2022-08-29T09:52:25.015Z,5.88
2022-08-29T09:55:25.209Z,5.43
2022-08-29T09:58:31.727Z,4.93
2022-08-29T10:01:26.213Z,5.00
2022-08-29T10:04:34.247Z,5.78
2022-08-29T10:07:22.099Z,5.38
2022-08-29T10:10:22.861Z,6.03
2022-08-29T10:13:26.917Z,5.40
2022-08-29T10:16:27.977Z,5.07
2022-08-29T10:19:18.627Z,5.10
2022-08-29T10:22:56.942Z,4.85
2022-08-29T10:25:43.082Z,5.00
2022-08-29T10:28:43.197Z,4.45
2022-08-29T10:32:13.306Z,4.63
2022-08-29T10:35:01.837Z,4.78
2022-08-29T10:38:24.875Z,4.80
2022-08-29T10:41:33.842Z,4.88
2022-08-29T10:44:40.658Z,4.30
2022-08-29T10:47:30.583Z,3.55
2022-08-29T10:50:43.139Z,4.00
2022-08-29T10:53:47.796Z,3.97
2022-08-29T10:56:40.750Z,4.03
2022-08-29T10:59:26.282Z,4.65
2022-08-29T11:02:23.970Z,4.20
2022-08-29T11:05:20.057Z,4.28
2022-08-29T11:08:19.927Z,3.58
2022-08-29T11:11:05.773Z,4.18
2022-08-29T11:14:01.213Z,4.00
2022-08-29T11:16:53.346Z,3.63
2022-08-29T11:19:45.944Z,3.33
2022-08-29T11:25:27.640Z,3.53
2022-08-29T11:28:20.196Z,3.80
2022-08-29T11:31:08.749Z,3.92
2022-08-29T11:34:37.800Z,3.95
2022-08-29T11:37:54.152Z,3.35
2022-08-29T11:44:31.252Z,3.13
2022-08-29T11:47:47.523Z,3.10
2022-08-29T11:50:36.182Z,2.65
2022-08-29T11:53:22.712Z,3.17
2022-08-29T11:56:28.709Z,2.90
2022-08-29T11:59:49.407Z,2.72
2022-08-29T12:02:34.886Z,3.45
2022-08-29T12:05:20.958Z,3.30
2022-08-29T12:08:35.984Z,3.55
2022-08-29T12:11:21.935Z,2.78
2022-08-29T12:14:07.678Z,2.10
2022-08-29T12:16:53.608Z,2.42
2022-08-29T12:19:57.271Z,3.28
2022-08-29T12:22:54.241Z,2.95
2022-08-29T12:25:59.315Z,3.10
2022-08-29T12:29:00.365Z,3.28
2022-08-29T12:35:30.707Z,3.83
2022-08-29T12:38:28.200Z,2.95
2022-08-29T12:41:39.251Z,3.58
2022-08-29T12:44:38.440Z,3.20
2022-08-29T12:47:32.884Z,4.57
2022-08-29T12:50:21.544Z,3.75
2022-08-29T12:53:18.915Z,3.70
2022-08-29T12:56:17.079Z,3.40
2022-08-29T12:59:05.345Z,3.55
2022-08-29T13:01:54.277Z,4.25
2022-08-29T13:04:44.163Z,3.67
2022-08-29T13:07:30.657Z,3.97
2022-08-29T13:10:19.297Z,3.90
2022-08-29T13:13:13.804Z,4.07
2022-08-29T13:16:02.474Z,3.55
2022-08-29T13:19:07.415Z,4.65
2022-08-29T13:22:04.287Z,4.55
2022-08-29T13:25:05.662Z,5.30
2022-08-29T13:28:01.635Z,4.65
2022-08-29T13:31:27.962Z,4.35
2022-08-29T13:34:19.419Z,4.40
2022-08-29T13:37:10.521Z,4.13
2022-08-29T13:40:46.654Z,5.50
2022-08-29T13:43:43.321Z,5.32
2022-08-29T13:46:30.683Z,5.32
2022-08-29T13:49:24.762Z,4.88
2022-08-29T13:52:11.521Z,3.78
2022-08-29T13:54:56.779Z,4.07
2022-08-29T13:57:45.062Z,4.18
2022-08-29T14:00:35.532Z,3.88
2022-08-29T14:03:23.143Z,4.50
2022-08-29T14:06:11.517Z,3.97
2022-08-29T14:08:59.410Z,2.97
2022-08-29T14:11:45.407Z,2.88
2022-08-29T14:14:31.061Z,3.78
2022-08-29T14:17:18.916Z,3.42
2022-08-29T14:20:07.703Z,2.70
2022-08-29T14:22:53.046Z,3.10
2022-08-29T14:25:38.510Z,3.28
2022-08-29T14:28:24.065Z,3.13
2022-08-29T14:31:09.737Z,3.00
2022-08-29T14:33:55.112Z,2.67
2022-08-29T14:36:44.931Z,2.35
2022-08-29T14:39:34.252Z,2.95
2022-08-29T14:42:19.690Z,3.58
2022-08-29T14:45:12.639Z,2.60
2022-08-29T14:47:59.128Z,2.38
2022-08-29T14:50:44.627Z,2.95
2022-08-29T14:53:30.954Z,3.05
2022-08-29T14:56:37.406Z,3.63
2022-08-29T14:59:25.747Z,2.75
2022-08-29T15:02:11.425Z,3.03
2022-08-29T15:04:58.796Z,3.15
2022-08-29T15:07:45.238Z,4.72
2022-08-29T15:10:30.703Z,3.58
2022-08-29T15:13:16.145Z,3.72
2022-08-29T15:16:01.856Z,4.05
2022-08-29T15:21:53.468Z,5.57
2022-08-29T15:24:42.506Z,5.80
2022-08-29T15:27:28.070Z,6.07
2022-08-29T15:30:25.338Z,6.28
2022-08-29T15:33:10.748Z,5.82
2022-08-29T15:35:58.899Z,6.07
2022-08-29T15:38:44.808Z,5.88
2022-08-29T15:41:31.318Z,5.75
2022-08-29T15:44:17.433Z,5.40
2022-08-29T15:47:03.973Z,6.32
2022-08-29T15:49:49.876Z,7.00
2022-08-29T15:52:36.649Z,6.43
2022-08-29T15:55:22.399Z,6.32
2022-08-29T15:58:07.675Z,6.82
2022-08-29T16:00:53.403Z,6.82
2022-08-29T16:03:39.027Z,7.13
2022-08-29T16:06:24.361Z,6.35
2022-08-29T16:09:15.765Z,6.25
2022-08-29T16:15:03.699Z,5.07
2022-08-29T16:17:52.692Z,5.50
2022-08-29T16:20:41.380Z,4.50
2022-08-29T16:23:27.159Z,4.57
2022-08-29T16:26:12.469Z,5.05
2022-08-29T16:28:58.074Z,4.22
2022-08-29T16:31:43.378Z,4.55
2022-08-29T16:34:29.422Z,3.85
2022-08-29T16:37:15.642Z,3.33
2022-08-29T16:40:03.960Z,3.28
2022-08-29T16:42:55.316Z,2.72
2022-08-29T16:45:41.195Z,3.03
2022-08-29T16:48:27.178Z,2.92
2022-08-29T16:51:12.625Z,2.58
2022-08-29T16:54:04.702Z,2.40
2022-08-29T16:56:50.511Z,2.50
2022-08-29T16:59:37.097Z,1.95
2022-08-29T17:02:23.128Z,2.47
2022-08-29T17:05:08.919Z,2.40
2022-08-29T17:07:54.291Z,2.38
2022-08-29T17:10:39.698Z,2.80
2022-08-29T17:13:25.484Z,2.53
2022-08-29T17:16:11.324Z,1.63
2022-08-29T17:18:56.919Z,1.65
2022-08-29T17:21:43.222Z,2.28
2022-08-29T17:24:29.273Z,2.10
2022-08-29T17:27:20.696Z,2.08
2022-08-29T17:30:07.640Z,2.28
2022-08-29T17:32:52.868Z,2.58
2022-08-29T17:35:39.184Z,2.38
2022-08-29T17:38:25.219Z,2.08
2022-08-29T17:41:17.266Z,1.83
2022-08-29T17:44:06.504Z,1.52
2022-08-29T17:46:52.170Z,2.10
2022-08-29T17:49:37.745Z,1.90
2022-08-29T17:52:23.315Z,2.20
2022-08-29T17:55:09.604Z,1.65
2022-08-29T17:57:54.893Z,1.45
2022-08-29T18:00:41.287Z,1.50
2022-08-29T18:03:27.072Z,1.80
2022-08-29T18:06:14.619Z,1.45
2022-08-29T18:09:00.693Z,2.42
2022-08-29T18:11:49.434Z,1.48
2022-08-29T18:14:34.985Z,1.40
2022-08-29T18:17:21.590Z,1.35
2022-08-29T18:20:10.403Z,1.30
2022-08-29T18:22:56.210Z,1.42
2022-08-29T18:25:42.032Z,1.35
2022-08-29T18:28:28.399Z,1.35
2022-08-29T18:31:18.536Z,1.42
2022-08-29T18:34:04.353Z,1.10
2022-08-29T18:36:49.957Z,1.13
2022-08-29T18:39:35.201Z,1.48
2022-08-29T18:42:39.376Z,1.33
2022-08-29T18:45:25.953Z,1.55
2022-08-29T18:48:11.889Z,1.20
2022-08-29T18:50:58.620Z,1.27
2022-08-29T18:53:44.782Z,1.13
2022-08-29T18:56:31.442Z,1.20
2022-08-29T18:59:16.938Z,1.08
2022-08-29T19:02:02.538Z,1.10
2022-08-29T19:04:48.027Z,1.10
2022-08-29T19:07:33.515Z,1.45
2022-08-29T19:10:19.896Z,1.20
2022-08-29T19:13:08.216Z,1.50
2022-08-29T19:15:57.885Z,1.13
2022-08-29T19:18:43.722Z,1.20
2022-08-29T19:21:29.069Z,1.85
2022-08-29T19:24:14.712Z,1.63
2022-08-29T19:27:00.279Z,1.10
2022-08-29T19:29:45.875Z,0.95
2022-08-29T19:32:35.451Z,1.25
2022-08-29T19:35:23.118Z,1.35
2022-08-29T19:38:08.812Z,1.05
2022-08-29T19:40:57.092Z,1.23
2022-08-29T19:43:44.175Z,1.08
2022-08-29T19:46:29.791Z,1.73
2022-08-29T19:49:15.464Z,1.20
2022-08-29T19:52:01.314Z,1.00
2022-08-29T19:54:47.162Z,1.75
2022-08-29T19:57:35.962Z,1.60
2022-08-29T20:00:25.155Z,1.33
2022-08-29T20:03:10.579Z,1.17
2022-08-29T20:05:56.584Z,0.95
2022-08-29T20:08:48.328Z,1.48
2022-08-29T20:11:43.828Z,1.33
2022-08-29T20:14:29.663Z,1.20
2022-08-29T20:17:15.001Z,0.95
2022-08-29T20:20:01.100Z,1.52
2022-08-29T20:22:47.030Z,1.45
2022-08-29T20:25:33.793Z,1.45
2022-08-29T20:28:19.292Z,1.35
2022-08-29T20:31:06.939Z,1.60
2022-08-29T20:33:52.423Z,1.52
2022-08-29T20:36:56.253Z,1.13
2022-08-29T20:39:46.538Z,1.15
2022-08-29T20:42:31.922Z,1.00
2022-08-29T20:45:17.364Z,1.13
2022-08-29T20:48:03.524Z,1.25
2022-08-29T20:50:59.881Z,1.40
2022-08-29T20:53:45.697Z,1.23
2022-08-29T20:56:31.701Z,1.23
2022-08-29T20:59:17.569Z,0.95
2022-08-29T21:02:05.049Z,1.10
2022-08-29T21:05:09.195Z,0.82
2022-08-29T21:07:55.124Z,1.60
2022-08-29T21:10:41.871Z,1.48
2022-08-29T21:13:28.153Z,1.30
2022-08-29T21:16:13.852Z,1.38
2022-08-29T21:18:59.277Z,1.02
2022-08-29T21:21:45.580Z,1.33
2022-08-29T21:24:31.288Z,1.33
2022-08-29T21:27:16.541Z,0.73
2022-08-29T21:30:01.960Z,0.90
2022-08-29T21:32:48.350Z,1.02
2022-08-29T21:35:33.756Z,1.40
2022-08-29T21:38:19.080Z,1.17
2022-08-29T21:41:07.824Z,1.17
2022-08-29T21:43:53.448Z,1.17
2022-08-29T21:46:45.765Z,1.38
2022-08-29T21:49:31.834Z,1.00
2022-08-29T21:52:18.989Z,0.85
2022-08-29T21:55:06.459Z,0.90
2022-08-29T21:57:51.816Z,0.93
2022-08-29T22:00:42.128Z,1.08
2022-08-29T22:03:27.608Z,0.80
2022-08-29T22:06:15.146Z,1.05
2022-08-29T22:09:01.855Z,1.13
2022-08-29T22:11:47.521Z,1.00
2022-08-29T22:14:51.432Z,0.80
2022-08-29T22:17:37.049Z,1.45
2022-08-29T22:20:22.235Z,1.10
2022-08-29T22:23:08.470Z,0.75
2022-08-29T22:25:54.153Z,0.95
2022-08-29T22:28:40.485Z,0.90
2022-08-29T22:31:27.813Z,0.90
2022-08-29T22:34:16.071Z,1.02
2022-08-29T22:37:01.484Z,0.90
2022-08-29T22:39:46.818Z,0.77
2022-08-29T22:42:32.247Z,0.60
2022-08-29T22:45:19.356Z,1.08
2022-08-29T22:48:04.758Z,1.17
2022-08-29T22:50:58.105Z,0.80
2022-08-29T22:54:04.665Z,0.77
2022-08-29T22:56:50.407Z,0.80
2022-08-29T22:59:41.646Z,1.50
2022-08-29T23:02:27.503Z,0.65
2022-08-29T23:05:13.700Z,0.90
2022-08-29T23:07:59.191Z,0.90
2022-08-29T23:10:45.222Z,1.10
2022-08-29T23:13:34.851Z,0.80
2022-08-29T23:16:25.569Z,1.02
2022-08-29T23:19:11.014Z,1.20
2022-08-29T23:21:56.606Z,1.38
2022-08-29T23:24:53.951Z,0.80
2022-08-29T23:27:44.145Z,1.00
2022-08-29T23:30:29.369Z,1.00
2022-08-29T23:33:16.396Z,1.30
2022-08-29T23:36:02.021Z,0.80
2022-08-29T23:38:48.193Z,0.70
2022-08-29T23:41:38.175Z,1.25
2022-08-29T23:44:23.956Z,0.60
2022-08-29T23:47:09.241Z,1.25
2022-08-29T23:49:54.570Z,1.00
2022-08-29T23:52:41.738Z,0.60
2022-08-29T23:55:27.194Z,0.88
2022-08-29T23:58:12.650Z,1.20
